sensor_id;sensor_type;location;lat;lon;timestamp;pressure;altitude;pressure_sealevel;temperature;humidity
16793;BME280;8513;42.662;23.350;2023-04-27T00:00:13;94594.63;;;9.52;41.54
16793;BME280;8513;42.662;23.350;2023-04-27T00:02:39;94584.50;;;9.31;42.02
16793;BME280;8513;42.662;23.350;2023-04-27T00:05:05;94586.66;;;9.36;41.99
16793;BME280;8513;42.662;23.350;2023-04-27T00:07:30;94584.53;;;9.39;41.90
16793;BME280;8513;42.662;23.350;2023-04-27T00:09:56;94594.41;;;9.45;41.69
16793;BME280;8513;42.662;23.350;2023-04-27T00:12:22;94598.38;;;9.23;42.31
16793;BME280;8513;42.662;23.350;2023-04-27T00:14:47;94600.50;;;9.20;42.14
16793;BME280;8513;42.662;23.350;2023-04-27T00:17:13;94594.41;;;9.19;42.16
16793;BME280;8513;42.662;23.350;2023-04-27T00:19:38;94601.00;;;9.23;41.88
16793;BME280;8513;42.662;23.350;2023-04-27T00:22:06;94612.94;;;9.18;42.04
16793;BME280;8513;42.662;23.350;2023-04-27T00:24:32;94606.97;;;9.34;41.64
16793;BME280;8513;42.662;23.350;2023-04-27T00:26:57;94611.75;;;9.12;42.14
16793;BME280;8513;42.662;23.350;2023-04-27T00:29:22;94608.72;;;9.25;41.85
16793;BME280;8513;42.662;23.350;2023-04-27T00:31:48;94610.72;;;8.87;42.58
16793;BME280;8513;42.662;23.350;2023-04-27T00:34:13;94605.63;;;9.03;42.23
16793;BME280;8513;42.662;23.350;2023-04-27T00:36:39;94604.22;;;8.91;42.43
16793;BME280;8513;42.662;23.350;2023-04-27T00:39:04;94618.56;;;9.05;42.19
16793;BME280;8513;42.662;23.350;2023-04-27T00:41:30;94606.31;;;8.88;42.87
16793;BME280;8513;42.662;23.350;2023-04-27T00:43:57;94609.31;;;8.93;42.37
16793;BME280;8513;42.662;23.350;2023-04-27T00:46:23;94610.34;;;8.82;42.60
16793;BME280;8513;42.662;23.350;2023-04-27T00:48:49;94612.97;;;8.82;42.94
16793;BME280;8513;42.662;23.350;2023-04-27T00:51:14;94612.91;;;8.92;42.26
16793;BME280;8513;42.662;23.350;2023-04-27T00:53:40;94612.91;;;8.92;42.21
16793;BME280;8513;42.662;23.350;2023-04-27T00:56:06;94609.84;;;8.78;42.49
16793;BME280;8513;42.662;23.350;2023-04-27T00:58:32;94621.44;;;8.76;42.63
16793;BME280;8513;42.662;23.350;2023-04-27T01:00:58;94608.72;;;8.81;42.19
16793;BME280;8513;42.662;23.350;2023-04-27T01:03:25;94617.84;;;8.59;43.20
16793;BME280;8513;42.662;23.350;2023-04-27T01:05:50;94619.34;;;8.61;42.66
16793;BME280;8513;42.662;23.350;2023-04-27T01:08:17;94622.84;;;8.52;43.38
16793;BME280;8513;42.662;23.350;2023-04-27T01:10:42;94624.53;;;8.53;43.32
16793;BME280;8513;42.662;23.350;2023-04-27T01:13:08;94618.53;;;8.61;42.79
16793;BME280;8513;42.662;23.350;2023-04-27T01:15:33;94635.50;;;8.57;42.86
16793;BME280;8513;42.662;23.350;2023-04-27T01:17:59;94627.72;;;8.47;43.32
16793;BME280;8513;42.662;23.350;2023-04-27T01:20:25;94629.75;;;8.53;43.42
16793;BME280;8513;42.662;23.350;2023-04-27T01:22:55;94632.00;;;8.48;43.34
16793;BME280;8513;42.662;23.350;2023-04-27T01:25:21;94632.13;;;8.47;43.76
16793;BME280;8513;42.662;23.350;2023-04-27T01:27:46;94642.78;;;8.45;43.58
16793;BME280;8513;42.662;23.350;2023-04-27T01:30:12;94638.97;;;8.39;43.54
16793;BME280;8513;42.662;23.350;2023-04-27T01:32:37;94649.03;;;8.34;43.71
16793;BME280;8513;42.662;23.350;2023-04-27T01:35:04;94643.97;;;8.23;43.93
16793;BME280;8513;42.662;23.350;2023-04-27T01:37:30;94629.09;;;8.24;43.93
16793;BME280;8513;42.662;23.350;2023-04-27T01:39:55;94634.75;;;8.19;43.91
16793;BME280;8513;42.662;23.350;2023-04-27T01:42:20;94639.06;;;8.38;43.33
16793;BME280;8513;42.662;23.350;2023-04-27T01:44:47;94641.97;;;8.35;43.69
16793;BME280;8513;42.662;23.350;2023-04-27T01:47:14;94644.25;;;8.20;43.63
16793;BME280;8513;42.662;23.350;2023-04-27T01:49:39;94644.81;;;8.24;43.71
16793;BME280;8513;42.662;23.350;2023-04-27T01:52:05;94649.41;;;8.12;43.96
16793;BME280;8513;42.662;23.350;2023-04-27T01:54:31;94648.16;;;8.16;43.65
16793;BME280;8513;42.662;23.350;2023-04-27T01:56:56;94642.19;;;8.24;43.93
16793;BME280;8513;42.662;23.350;2023-04-27T01:59:22;94651.91;;;8.41;42.84
16793;BME280;8513;42.662;23.350;2023-04-27T02:01:48;94651.34;;;8.10;43.89
16793;BME280;8513;42.662;23.350;2023-04-27T02:04:13;94636.09;;;8.23;43.34
16793;BME280;8513;42.662;23.350;2023-04-27T02:06:39;94639.09;;;8.28;43.15
16793;BME280;8513;42.662;23.350;2023-04-27T02:09:05;94642.63;;;8.19;43.12
16793;BME280;8513;42.662;23.350;2023-04-27T02:11:31;94642.72;;;8.00;44.03
16793;BME280;8513;42.662;23.350;2023-04-27T02:13:56;94651.63;;;8.34;42.96
16793;BME280;8513;42.662;23.350;2023-04-27T02:16:22;94646.69;;;8.31;42.96
16793;BME280;8513;42.662;23.350;2023-04-27T02:18:47;94639.94;;;8.01;43.46
16793;BME280;8513;42.662;23.350;2023-04-27T02:21:13;94645.84;;;8.13;43.68
16793;BME280;8513;42.662;23.350;2023-04-27T02:23:39;94654.81;;;8.10;43.25
16793;BME280;8513;42.662;23.350;2023-04-27T02:26:04;94654.59;;;8.22;43.30
16793;BME280;8513;42.662;23.350;2023-04-27T02:28:30;94649.63;;;7.91;43.66
16793;BME280;8513;42.662;23.350;2023-04-27T02:30:56;94650.28;;;8.03;43.61
16793;BME280;8513;42.662;23.350;2023-04-27T02:33:22;94660.81;;;8.21;42.99
16793;BME280;8513;42.662;23.350;2023-04-27T02:35:47;94658.81;;;8.05;43.33
16793;BME280;8513;42.662;23.350;2023-04-27T02:38:13;94652.63;;;8.06;43.47
16793;BME280;8513;42.662;23.350;2023-04-27T02:40:38;94651.72;;;8.15;43.08
16793;BME280;8513;42.662;23.350;2023-04-27T02:43:04;94662.59;;;8.20;42.77
16793;BME280;8513;42.662;23.350;2023-04-27T02:45:29;94650.88;;;8.24;42.77
16793;BME280;8513;42.662;23.350;2023-04-27T02:47:55;94658.16;;;8.03;43.17
16793;BME280;8513;42.662;23.350;2023-04-27T02:50:21;94666.78;;;8.13;43.12
16793;BME280;8513;42.662;23.350;2023-04-27T02:52:46;94657.25;;;8.12;42.99
16793;BME280;8513;42.662;23.350;2023-04-27T02:55:12;94656.53;;;8.20;42.77
16793;BME280;8513;42.662;23.350;2023-04-27T02:57:38;94651.47;;;8.18;42.85
16793;BME280;8513;42.662;23.350;2023-04-27T03:00:05;94666.59;;;8.24;42.48
16793;BME280;8513;42.662;23.350;2023-04-27T03:02:31;94666.06;;;8.21;42.66
16793;BME280;8513;42.662;23.350;2023-04-27T03:04:56;94665.94;;;8.12;42.88
16793;BME280;8513;42.662;23.350;2023-04-27T03:07:23;94661.94;;;8.18;42.66
16793;BME280;8513;42.662;23.350;2023-04-27T03:09:48;94668.50;;;8.22;42.70
16793;BME280;8513;42.662;23.350;2023-04-27T03:12:14;94673.63;;;8.24;42.38
16793;BME280;8513;42.662;23.350;2023-04-27T03:14:39;94672.13;;;8.21;42.79
16793;BME280;8513;42.662;23.350;2023-04-27T03:17:05;94673.94;;;8.38;42.14
16793;BME280;8513;42.662;23.350;2023-04-27T03:19:30;94672.53;;;8.16;42.44
16793;BME280;8513;42.662;23.350;2023-04-27T03:21:56;94675.78;;;8.01;43.32
16793;BME280;8513;42.662;23.350;2023-04-27T03:24:21;94683.44;;;8.12;42.91
16793;BME280;8513;42.662;23.350;2023-04-27T03:26:49;94680.81;;;8.12;42.67
16793;BME280;8513;42.662;23.350;2023-04-27T03:29:15;94684.66;;;8.17;42.56
16793;BME280;8513;42.662;23.350;2023-04-27T03:31:41;94683.44;;;8.12;42.65
16793;BME280;8513;42.662;23.350;2023-04-27T03:34:06;94682.91;;;8.08;42.17
16793;BME280;8513;42.662;23.350;2023-04-27T03:36:31;94681.72;;;8.03;42.41
16793;BME280;8513;42.662;23.350;2023-04-27T03:38:57;94692.69;;;8.16;42.21
16793;BME280;8513;42.662;23.350;2023-04-27T03:41:22;94707.41;;;8.17;42.25
16793;BME280;8513;42.662;23.350;2023-04-27T03:43:48;94689.28;;;7.96;42.52
16793;BME280;8513;42.662;23.350;2023-04-27T03:46:14;94690.97;;;7.97;42.33
16793;BME280;8513;42.662;23.350;2023-04-27T03:48:40;94697.31;;;7.94;42.30
16793;BME280;8513;42.662;23.350;2023-04-27T03:51:07;94696.19;;;7.97;42.39
16793;BME280;8513;42.662;23.350;2023-04-27T03:53:33;94704.41;;;8.12;42.03
16793;BME280;8513;42.662;23.350;2023-04-27T03:56:01;94698.66;;;7.99;42.62
16793;BME280;8513;42.662;23.350;2023-04-27T03:58:27;94707.72;;;8.04;42.67
16793;BME280;8513;42.662;23.350;2023-04-27T04:00:52;94706.91;;;8.04;42.40
16793;BME280;8513;42.662;23.350;2023-04-27T04:03:18;94707.59;;;8.06;42.20
16793;BME280;8513;42.662;23.350;2023-04-27T04:05:44;94711.75;;;7.99;42.45
16793;BME280;8513;42.662;23.350;2023-04-27T04:08:12;94717.97;;;7.98;42.74
16793;BME280;8513;42.662;23.350;2023-04-27T04:10:37;94721.81;;;8.03;42.19
16793;BME280;8513;42.662;23.350;2023-04-27T04:13:03;94732.50;;;8.10;42.08
16793;BME280;8513;42.662;23.350;2023-04-27T04:15:28;94735.06;;;8.29;41.76
16793;BME280;8513;42.662;23.350;2023-04-27T04:17:54;94726.72;;;8.16;41.84
16793;BME280;8513;42.662;23.350;2023-04-27T04:20:19;94732.38;;;8.11;41.29
16793;BME280;8513;42.662;23.350;2023-04-27T04:22:45;94736.22;;;8.17;41.34
16793;BME280;8513;42.662;23.350;2023-04-27T04:25:11;94731.16;;;8.06;41.91
16793;BME280;8513;42.662;23.350;2023-04-27T04:27:37;94736.22;;;8.17;42.08
16793;BME280;8513;42.662;23.350;2023-04-27T04:30:04;94750.09;;;8.27;41.67
16793;BME280;8513;42.662;23.350;2023-04-27T04:32:30;94743.66;;;8.22;41.77
16793;BME280;8513;42.662;23.350;2023-04-27T04:34:56;94745.09;;;8.34;41.78
16793;BME280;8513;42.662;23.350;2023-04-27T04:37:22;94744.56;;;8.30;41.54
16793;BME280;8513;42.662;23.350;2023-04-27T04:39:47;94747.91;;;8.23;41.59
16793;BME280;8513;42.662;23.350;2023-04-27T04:42:13;94750.91;;;8.37;41.40
16793;BME280;8513;42.662;23.350;2023-04-27T04:44:38;94751.00;;;8.55;40.69
16793;BME280;8513;42.662;23.350;2023-04-27T04:47:04;94762.81;;;8.22;41.49
16793;BME280;8513;42.662;23.350;2023-04-27T04:49:30;94760.41;;;8.38;41.25
16793;BME280;8513;42.662;23.350;2023-04-27T04:51:56;94764.28;;;8.34;41.11
16793;BME280;8513;42.662;23.350;2023-04-27T04:54:21;94762.13;;;8.57;40.96
16793;BME280;8513;42.662;23.350;2023-04-27T04:56:47;94761.09;;;8.50;40.95
16793;BME280;8513;42.662;23.350;2023-04-27T04:59:12;94770.72;;;8.50;41.10
16793;BME280;8513;42.662;23.350;2023-04-27T05:01:38;94771.50;;;8.60;41.02
16793;BME280;8513;42.662;23.350;2023-04-27T05:04:03;94786.19;;;8.71;40.79
16793;BME280;8513;42.662;23.350;2023-04-27T05:06:29;94781.06;;;8.79;40.95
16793;BME280;8513;42.662;23.350;2023-04-27T05:08:54;94789.25;;;8.94;40.12
16793;BME280;8513;42.662;23.350;2023-04-27T05:11:20;94782.94;;;8.87;40.62
16793;BME280;8513;42.662;23.350;2023-04-27T05:13:46;94794.00;;;9.08;40.25
16793;BME280;8513;42.662;23.350;2023-04-27T05:16:12;94786.34;;;8.97;40.33
16793;BME280;8513;42.662;23.350;2023-04-27T05:18:37;94798.13;;;9.11;40.04
16793;BME280;8513;42.662;23.350;2023-04-27T05:21:03;94789.75;;;8.79;40.51
16793;BME280;8513;42.662;23.350;2023-04-27T05:23:28;94785.06;;;8.55;41.06
16793;BME280;8513;42.662;23.350;2023-04-27T05:25:53;94804.34;;;8.82;40.48
16793;BME280;8513;42.662;23.350;2023-04-27T05:28:19;94804.25;;;8.36;41.17
16793;BME280;8513;42.662;23.350;2023-04-27T05:30:44;94793.19;;;8.52;41.37
16793;BME280;8513;42.662;23.350;2023-04-27T05:33:10;94808.59;;;8.18;41.85
16793;BME280;8513;42.662;23.350;2023-04-27T05:35:35;94807.91;;;8.16;42.10
16793;BME280;8513;42.662;23.350;2023-04-27T05:38:01;94807.88;;;8.26;42.13
16793;BME280;8513;42.662;23.350;2023-04-27T05:40:27;94816.94;;;8.41;41.50
16793;BME280;8513;42.662;23.350;2023-04-27T05:42:52;94817.97;;;8.58;41.20
16793;BME280;8513;42.662;23.350;2023-04-27T05:45:18;94804.78;;;8.50;41.11
16793;BME280;8513;42.662;23.350;2023-04-27T05:47:44;94811.09;;;8.57;41.14
16793;BME280;8513;42.662;23.350;2023-04-27T05:50:09;94805.06;;;8.47;41.46
16793;BME280;8513;42.662;23.350;2023-04-27T05:52:35;94806.34;;;8.43;41.64
16793;BME280;8513;42.662;23.350;2023-04-27T05:55:01;94814.19;;;8.43;41.27
16793;BME280;8513;42.662;23.350;2023-04-27T05:57:26;94831.03;;;8.30;42.10
16793;BME280;8513;42.662;23.350;2023-04-27T05:59:52;94811.03;;;8.39;41.64
16793;BME280;8513;42.662;23.350;2023-04-27T06:02:18;94822.34;;;8.39;42.06
16793;BME280;8513;42.662;23.350;2023-04-27T06:04:44;94815.41;;;8.48;41.58
16793;BME280;8513;42.662;23.350;2023-04-27T06:07:14;94806.56;;;8.59;41.71
16793;BME280;8513;42.662;23.350;2023-04-27T06:09:40;94814.59;;;8.48;42.04
16793;BME280;8513;42.662;23.350;2023-04-27T06:12:06;94819.50;;;8.60;41.81
16793;BME280;8513;42.662;23.350;2023-04-27T06:14:33;94816.13;;;8.78;41.42
16793;BME280;8513;42.662;23.350;2023-04-27T06:17:00;94826.72;;;8.76;42.02
16793;BME280;8513;42.662;23.350;2023-04-27T06:19:25;94831.34;;;8.92;41.35
16793;BME280;8513;42.662;23.350;2023-04-27T06:21:52;94821.13;;;8.99;41.07
16793;BME280;8513;42.662;23.350;2023-04-27T06:24:18;94815.56;;;9.02;41.05
16793;BME280;8513;42.662;23.350;2023-04-27T06:26:44;94808.00;;;8.99;41.10
16793;BME280;8513;42.662;23.350;2023-04-27T06:29:09;94809.72;;;9.08;41.31
16793;BME280;8513;42.662;23.350;2023-04-27T06:31:35;94814.50;;;9.22;40.93
16793;BME280;8513;42.662;23.350;2023-04-27T06:34:00;94813.50;;;9.23;40.77
16793;BME280;8513;42.662;23.350;2023-04-27T06:36:26;94808.63;;;9.28;40.81
16793;BME280;8513;42.662;23.350;2023-04-27T06:38:53;94808.19;;;9.15;40.83
16793;BME280;8513;42.662;23.350;2023-04-27T06:41:22;94812.81;;;9.21;40.82
16793;BME280;8513;42.662;23.350;2023-04-27T06:43:48;94812.59;;;9.33;40.89
16793;BME280;8513;42.662;23.350;2023-04-27T06:46:14;94804.94;;;9.21;41.27
16793;BME280;8513;42.662;23.350;2023-04-27T06:48:39;94811.25;;;9.28;40.67
16793;BME280;8513;42.662;23.350;2023-04-27T06:51:05;94810.31;;;9.65;40.30
16793;BME280;8513;42.662;23.350;2023-04-27T06:53:31;94797.91;;;9.58;40.14
16793;BME280;8513;42.662;23.350;2023-04-27T06:55:56;94802.25;;;9.85;39.53
16793;BME280;8513;42.662;23.350;2023-04-27T06:58:22;94797.03;;;10.11;38.98
16793;BME280;8513;42.662;23.350;2023-04-27T07:00:47;94794.53;;;10.09;39.37
16793;BME280;8513;42.662;23.350;2023-04-27T07:03:13;94784.88;;;10.18;39.41
16793;BME280;8513;42.662;23.350;2023-04-27T07:05:39;94806.41;;;10.40;39.24
16793;BME280;8513;42.662;23.350;2023-04-27T07:08:04;94794.47;;;10.45;38.13
16793;BME280;8513;42.662;23.350;2023-04-27T07:10:30;94791.13;;;10.35;38.42
16793;BME280;8513;42.662;23.350;2023-04-27T07:12:56;94790.56;;;10.57;37.87
16793;BME280;8513;42.662;23.350;2023-04-27T07:15:22;94784.28;;;10.24;38.42
16793;BME280;8513;42.662;23.350;2023-04-27T07:17:50;94810.28;;;10.27;38.25
16793;BME280;8513;42.662;23.350;2023-04-27T07:20:18;94796.69;;;10.32;37.97
16793;BME280;8513;42.662;23.350;2023-04-27T07:22:43;94793.19;;;10.57;36.99
16793;BME280;8513;42.662;23.350;2023-04-27T07:25:09;94780.19;;;10.48;37.04
16793;BME280;8513;42.662;23.350;2023-04-27T07:27:35;94790.22;;;10.52;37.88
16793;BME280;8513;42.662;23.350;2023-04-27T07:30:00;94786.34;;;10.65;37.40
16793;BME280;8513;42.662;23.350;2023-04-27T07:32:26;94784.25;;;10.42;37.64
16793;BME280;8513;42.662;23.350;2023-04-27T07:34:54;94776.31;;;10.68;37.45
16793;BME280;8513;42.662;23.350;2023-04-27T07:37:20;94788.78;;;10.66;37.56
16793;BME280;8513;42.662;23.350;2023-04-27T07:39:48;94781.81;;;10.83;36.27
16793;BME280;8513;42.662;23.350;2023-04-27T07:42:14;94781.97;;;10.90;35.86
16793;BME280;8513;42.662;23.350;2023-04-27T07:44:40;94787.22;;;10.81;35.98
16793;BME280;8513;42.662;23.350;2023-04-27T07:47:06;94785.25;;;10.84;36.04
16793;BME280;8513;42.662;23.350;2023-04-27T07:49:32;94775.59;;;11.00;35.31
16793;BME280;8513;42.662;23.350;2023-04-27T07:51:59;94777.88;;;10.95;35.53
16793;BME280;8513;42.662;23.350;2023-04-27T07:54:24;94778.56;;;11.06;34.99
16793;BME280;8513;42.662;23.350;2023-04-27T07:56:50;94781.22;;;11.14;34.77
16793;BME280;8513;42.662;23.350;2023-04-27T07:59:15;94790.63;;;11.24;34.33
16793;BME280;8513;42.662;23.350;2023-04-27T08:01:41;94786.03;;;11.26;34.57
16793;BME280;8513;42.662;23.350;2023-04-27T08:04:07;94785.19;;;11.10;34.87
16793;BME280;8513;42.662;23.350;2023-04-27T08:06:32;94790.00;;;11.31;34.64
16793;BME280;8513;42.662;23.350;2023-04-27T08:08:58;94791.16;;;11.28;34.46
16793;BME280;8513;42.662;23.350;2023-04-27T08:11:25;94776.34;;;11.60;33.60
16793;BME280;8513;42.662;23.350;2023-04-27T08:13:51;94778.31;;;11.33;34.59
16793;BME280;8513;42.662;23.350;2023-04-27T08:16:16;94794.09;;;11.33;34.95
16793;BME280;8513;42.662;23.350;2023-04-27T08:18:43;94777.69;;;11.47;34.95
16793;BME280;8513;42.662;23.350;2023-04-27T08:21:08;94784.78;;;11.72;34.90
16793;BME280;8513;42.662;23.350;2023-04-27T08:23:33;94781.81;;;11.83;33.91
16793;BME280;8513;42.662;23.350;2023-04-27T08:26:01;94781.81;;;11.99;33.38
16793;BME280;8513;42.662;23.350;2023-04-27T08:28:27;94780.84;;;12.08;33.53
16793;BME280;8513;42.662;23.350;2023-04-27T08:30:53;94772.09;;;12.00;33.63
16793;BME280;8513;42.662;23.350;2023-04-27T08:33:18;94774.91;;;11.98;33.82
16793;BME280;8513;42.662;23.350;2023-04-27T08:35:43;94779.69;;;12.11;33.72
16793;BME280;8513;42.662;23.350;2023-04-27T08:38:09;94776.38;;;12.25;33.98
16793;BME280;8513;42.662;23.350;2023-04-27T08:40:34;94771.53;;;12.45;33.13
16793;BME280;8513;42.662;23.350;2023-04-27T08:43:00;94779.53;;;12.04;33.95
16793;BME280;8513;42.662;23.350;2023-04-27T08:45:26;94776.88;;;12.12;33.60
16793;BME280;8513;42.662;23.350;2023-04-27T08:47:52;94780.28;;;12.29;33.44
16793;BME280;8513;42.662;23.350;2023-04-27T08:50:18;94773.03;;;12.40;34.80
16793;BME280;8513;42.662;23.350;2023-04-27T08:52:45;94783.56;;;12.40;33.57
16793;BME280;8513;42.662;23.350;2023-04-27T08:55:11;94780.78;;;12.41;33.17
16793;BME280;8513;42.662;23.350;2023-04-27T08:57:37;94782.22;;;12.52;33.46
16793;BME280;8513;42.662;23.350;2023-04-27T09:00:03;94787.59;;;12.67;33.22
16793;BME280;8513;42.662;23.350;2023-04-27T09:02:36;94784.97;;;12.67;32.65
16793;BME280;8513;42.662;23.350;2023-04-27T09:05:02;94785.56;;;12.38;33.87
16793;BME280;8513;42.662;23.350;2023-04-27T09:07:28;94778.97;;;12.42;33.58
16793;BME280;8513;42.662;23.350;2023-04-27T09:10:03;94777.94;;;12.51;33.15
16793;BME280;8513;42.662;23.350;2023-04-27T09:12:32;94787.94;;;12.72;33.11
16793;BME280;8513;42.662;23.350;2023-04-27T09:14:59;94781.78;;;12.79;32.66
16793;BME280;8513;42.662;23.350;2023-04-27T09:17:27;94778.19;;;12.80;32.31
16793;BME280;8513;42.662;23.350;2023-04-27T09:20:07;94773.44;;;12.68;32.47
16793;BME280;8513;42.662;23.350;2023-04-27T09:22:42;94782.16;;;12.76;32.45
16793;BME280;8513;42.662;23.350;2023-04-27T09:25:08;94769.63;;;12.78;32.65
16793;BME280;8513;42.662;23.350;2023-04-27T09:27:33;94773.34;;;12.92;32.19
16793;BME280;8513;42.662;23.350;2023-04-27T09:30:11;94778.69;;;13.15;32.02
16793;BME280;8513;42.662;23.350;2023-04-27T09:32:37;94767.72;;;12.95;31.84
16793;BME280;8513;42.662;23.350;2023-04-27T09:35:03;94761.94;;;13.00;32.17
16793;BME280;8513;42.662;23.350;2023-04-27T09:37:40;94755.34;;;12.96;32.37
16793;BME280;8513;42.662;23.350;2023-04-27T09:40:06;94758.94;;;13.03;32.48
16793;BME280;8513;42.662;23.350;2023-04-27T09:42:32;94763.03;;;13.06;32.74
16793;BME280;8513;42.662;23.350;2023-04-27T09:44:58;94748.16;;;13.13;32.20
16793;BME280;8513;42.662;23.350;2023-04-27T09:47:25;94753.72;;;13.26;31.92
16793;BME280;8513;42.662;23.350;2023-04-27T09:49:52;94747.44;;;13.27;31.63
16793;BME280;8513;42.662;23.350;2023-04-27T09:52:18;94744.13;;;13.56;31.57
16793;BME280;8513;42.662;23.350;2023-04-27T09:54:43;94738.13;;;13.62;29.93
16793;BME280;8513;42.662;23.350;2023-04-27T10:00:32;94739.41;;;13.43;30.97
16793;BME280;8513;42.662;23.350;2023-04-27T10:08:44;94731.28;;;14.06;30.03
16793;BME280;8513;42.662;23.350;2023-04-27T10:11:14;94735.94;;;14.04;29.54
16793;BME280;8513;42.662;23.350;2023-04-27T10:13:53;94735.38;;;14.08;29.28
16793;BME280;8513;42.662;23.350;2023-04-27T10:16:20;94735.38;;;13.94;29.51
16793;BME280;8513;42.662;23.350;2023-04-27T10:18:54;94740.97;;;14.13;29.64
16793;BME280;8513;42.662;23.350;2023-04-27T10:21:20;94735.47;;;14.00;29.55
16793;BME280;8513;42.662;23.350;2023-04-27T10:23:47;94744.78;;;14.11;29.02
16793;BME280;8513;42.662;23.350;2023-04-27T10:26:34;94743.97;;;13.96;29.72
16793;BME280;8513;42.662;23.350;2023-04-27T10:29:07;94727.41;;;13.79;29.50
16793;BME280;8513;42.662;23.350;2023-04-27T10:31:33;94732.53;;;13.80;30.48
16793;BME280;8513;42.662;23.350;2023-04-27T10:34:09;94740.00;;;13.77;29.89
16793;BME280;8513;42.662;23.350;2023-04-27T10:36:39;94737.91;;;13.87;29.09
16793;BME280;8513;42.662;23.350;2023-04-27T10:39:19;94734.56;;;14.08;28.63
16793;BME280;8513;42.662;23.350;2023-04-27T10:41:54;94737.97;;;14.31;28.38
16793;BME280;8513;42.662;23.350;2023-04-27T10:44:28;94728.22;;;14.32;27.84
16793;BME280;8513;42.662;23.350;2023-04-27T10:46:55;94728.13;;;14.40;28.38
16793;BME280;8513;42.662;23.350;2023-04-27T10:49:22;94727.84;;;14.35;29.02
16793;BME280;8513;42.662;23.350;2023-04-27T10:51:49;94730.41;;;14.43;28.72
16793;BME280;8513;42.662;23.350;2023-04-27T10:54:15;94727.78;;;14.28;28.46
16793;BME280;8513;42.662;23.350;2023-04-27T10:56:41;94734.88;;;14.43;27.89
16793;BME280;8513;42.662;23.350;2023-04-27T10:59:07;94723.75;;;14.32;28.25
16793;BME280;8513;42.662;23.350;2023-04-27T11:01:34;94719.13;;;14.64;27.92
16793;BME280;8513;42.662;23.350;2023-04-27T11:04:00;94720.91;;;14.93;28.07
16793;BME280;8513;42.662;23.350;2023-04-27T11:06:27;94719.38;;;15.20;27.42
16793;BME280;8513;42.662;23.350;2023-04-27T11:08:53;94713.25;;;15.20;27.83
16793;BME280;8513;42.662;23.350;2023-04-27T11:11:19;94715.91;;;15.20;26.59
16793;BME280;8513;42.662;23.350;2023-04-27T11:13:47;94719.44;;;14.91;26.47
16793;BME280;8513;42.662;23.350;2023-04-27T11:16:14;94717.19;;;14.88;26.63
16793;BME280;8513;42.662;23.350;2023-04-27T11:18:40;94710.19;;;14.36;27.06
16793;BME280;8513;42.662;23.350;2023-04-27T11:21:08;94730.41;;;14.43;27.33
16793;BME280;8513;42.662;23.350;2023-04-27T11:23:34;94729.34;;;14.67;26.84
16793;BME280;8513;42.662;23.350;2023-04-27T11:26:13;94730.19;;;14.68;27.37
16793;BME280;8513;42.662;23.350;2023-04-27T11:28:40;94724.06;;;14.52;27.53
16793;BME280;8513;42.662;23.350;2023-04-27T11:31:06;94736.28;;;14.68;27.63
16793;BME280;8513;42.662;23.350;2023-04-27T11:33:31;94730.06;;;14.76;27.92
16793;BME280;8513;42.662;23.350;2023-04-27T11:35:57;94736.34;;;14.90;27.97
16793;BME280;8513;42.662;23.350;2023-04-27T11:38:23;94736.41;;;15.11;27.66
16793;BME280;8513;42.662;23.350;2023-04-27T11:41:07;94740.72;;;14.97;27.03
16793;BME280;8513;42.662;23.350;2023-04-27T11:43:33;94731.53;;;15.15;27.07
16793;BME280;8513;42.662;23.350;2023-04-27T11:46:05;94737.25;;;15.55;26.20
16793;BME280;8513;42.662;23.350;2023-04-27T11:48:36;94728.13;;;14.99;27.31
16793;BME280;8513;42.662;23.350;2023-04-27T11:51:02;94724.34;;;15.09;27.14
16793;BME280;8513;42.662;23.350;2023-04-27T11:53:36;94737.75;;;15.22;26.66
16793;BME280;8513;42.662;23.350;2023-04-27T11:56:04;94740.16;;;15.38;26.95
16793;BME280;8513;42.662;23.350;2023-04-27T11:58:35;94745.16;;;15.48;26.94
16793;BME280;8513;42.662;23.350;2023-04-27T12:01:02;94735.03;;;15.37;26.57
16793;BME280;8513;42.662;23.350;2023-04-27T12:03:28;94742.88;;;15.09;27.05
16793;BME280;8513;42.662;23.350;2023-04-27T12:05:55;94739.03;;;15.11;26.76
16793;BME280;8513;42.662;23.350;2023-04-27T12:08:21;94742.25;;;15.07;26.78
16793;BME280;8513;42.662;23.350;2023-04-27T12:10:47;94746.56;;;15.08;26.71
16793;BME280;8513;42.662;23.350;2023-04-27T12:13:13;94751.22;;;15.06;26.85
16793;BME280;8513;42.662;23.350;2023-04-27T12:15:39;94761.41;;;15.09;27.12
16793;BME280;8513;42.662;23.350;2023-04-27T12:18:05;94741.66;;;14.75;27.66
16793;BME280;8513;42.662;23.350;2023-04-27T12:20:31;94756.00;;;14.66;27.89
16793;BME280;8513;42.662;23.350;2023-04-27T12:22:56;94745.78;;;14.63;27.73
16793;BME280;8513;42.662;23.350;2023-04-27T12:25:22;94744.78;;;14.78;27.49
16793;BME280;8513;42.662;23.350;2023-04-27T12:27:48;94753.38;;;15.02;27.55
16793;BME280;8513;42.662;23.350;2023-04-27T12:30:14;94744.84;;;14.85;27.91
16793;BME280;8513;42.662;23.350;2023-04-27T12:32:40;94754.69;;;14.91;27.54
16793;BME280;8513;42.662;23.350;2023-04-27T12:35:06;94743.91;;;15.08;26.95
16793;BME280;8513;42.662;23.350;2023-04-27T12:37:33;94741.97;;;15.16;26.86
16793;BME280;8513;42.662;23.350;2023-04-27T12:39:58;94743.03;;;15.22;26.70
16793;BME280;8513;42.662;23.350;2023-04-27T12:42:24;94747.91;;;15.04;27.29
16793;BME280;8513;42.662;23.350;2023-04-27T12:44:50;94759.25;;;14.97;27.50
16793;BME280;8513;42.662;23.350;2023-04-27T12:47:20;94758.72;;;14.87;27.11
16793;BME280;8513;42.662;23.350;2023-04-27T12:49:46;94753.38;;;15.02;27.29
16793;BME280;8513;42.662;23.350;2023-04-27T12:52:11;94752.78;;;15.00;27.66
16793;BME280;8513;42.662;23.350;2023-04-27T12:54:37;94761.91;;;14.97;27.10
16793;BME280;8513;42.662;23.350;2023-04-27T12:57:03;94752.34;;;14.67;27.52
16793;BME280;8513;42.662;23.350;2023-04-27T12:59:34;94747.03;;;14.67;27.57
16793;BME280;8513;42.662;23.350;2023-04-27T13:02:00;94757.63;;;14.82;27.89
16793;BME280;8513;42.662;23.350;2023-04-27T13:04:28;94766.13;;;14.92;27.66
16793;BME280;8513;42.662;23.350;2023-04-27T13:06:55;94759.72;;;14.86;27.40
16793;BME280;8513;42.662;23.350;2023-04-27T13:09:21;94751.69;;;14.94;28.05